Time;durP1;ratioP1;P1;durP2;ratioP2;P2;SDS_P1;SDS_P2;PMS_P1;PMS_P2;Temp;Humidity;BMP_temperature;BMP_pressure;BME280_temperature;BME280_humidity;BME280_pressure;Samples;Min_cycle;Max_cycle;Signal;HPM_P1;HPM_P2
2022/07/20 00:00:44;;;;;;;7.57;4.60;;;30.80;33.00;;;-142.21;29.79;112049.66;5112153;28;20282;-79
2022/07/20 00:03:13;;;;;;;7.00;4.70;;;30.70;33.00;;;-142.21;30.13;112049.66;5112740;28;20337;-80
2022/07/20 00:05:40;;;;;;;5.73;4.43;;;30.70;33.40;;;-142.21;30.37;112049.66;5111407;28;20204;-76
2022/07/20 00:08:10;;;;;;;6.73;5.10;;;30.60;33.40;;;-142.21;30.55;112049.66;5111894;28;20279;-81
2022/07/20 00:13:33;;;;;;;6.57;4.63;;;30.50;34.10;;;-142.21;30.34;112049.66;5049760;28;20205;-78
2022/07/20 00:16:00;;;;;;;7.03;4.43;;;30.30;34.30;;;-142.21;30.83;112049.66;5094063;28;20200;-80
2022/07/20 00:18:27;;;;;;;5.33;4.57;;;30.30;34.10;;;-142.21;30.68;112049.66;5092989;28;20219;-78
2022/07/20 00:20:54;;;;;;;5.23;4.73;;;30.20;34.10;;;-142.21;30.58;112049.66;5111594;28;20294;-79
2022/07/20 00:23:23;;;;;;;6.03;4.80;;;30.20;34.20;;;-142.21;30.32;112049.66;5111603;28;20211;-79
2022/07/20 00:25:50;;;;;;;7.83;4.73;;;30.20;34.00;;;-142.21;30.34;112049.66;5111999;28;20205;-78
2022/07/20 00:28:17;;;;;;;6.30;5.07;;;30.20;34.00;;;-142.21;30.38;112049.66;5110917;28;20203;-77
2022/07/20 00:30:46;;;;;;;6.80;4.53;;;30.20;33.90;;;-142.21;30.47;112049.66;5111703;28;20669;-79
2022/07/20 00:33:13;;;;;;;7.97;4.33;;;30.20;34.20;;;-142.21;30.80;112049.66;5111799;28;20597;-78
2022/07/20 00:35:40;;;;;;;4.93;4.50;;;30.10;34.70;;;-142.21;31.03;112049.66;5112220;28;20294;-77
2022/07/20 00:38:07;;;;;;;5.17;4.67;;;30.10;34.70;;;-142.21;31.57;112049.66;5115801;28;20247;-79
2022/07/20 00:40:36;;;;;;;5.90;4.10;;;30.10;35.20;;;-142.21;31.53;112049.66;5115687;28;20638;-79
2022/07/20 00:43:06;;;;;;;5.20;4.60;;;30.00;35.20;;;-142.21;31.36;112049.66;5115892;28;20206;-77
2022/07/20 00:45:33;;;;;;;8.20;5.10;;;29.90;35.10;;;-142.21;31.41;112049.66;5115291;28;20203;-79
2022/07/20 00:48:01;;;;;;;5.07;4.57;;;29.90;35.20;;;-142.21;31.76;112049.66;5115911;28;20257;-78
2022/07/20 00:50:29;;;;;;;5.40;4.33;;;29.80;35.40;;;-142.21;31.81;112049.66;5079294;28;20202;-77
2022/07/20 00:52:57;;;;;;;5.47;4.97;;;29.70;35.40;;;-142.21;31.59;112049.66;5116065;28;20569;-76
2022/07/20 00:55:24;;;;;;;4.70;4.23;;;29.70;35.50;;;-142.21;31.86;112049.66;5115062;28;20294;-80
2022/07/20 00:57:53;;;;;;;5.00;4.40;;;29.60;35.60;;;-142.21;31.90;112049.66;5115050;28;20309;-76
2022/07/20 01:00:21;;;;;;;5.00;4.50;;;29.60;35.70;;;-142.21;31.95;112049.66;5111221;28;20289;-78
2022/07/20 01:02:48;;;;;;;5.60;4.70;;;29.50;35.80;;;-142.21;32.33;112049.66;5115171;28;20296;-76
2022/07/20 01:05:15;;;;;;;6.80;4.47;;;29.40;35.90;;;-142.21;32.62;112049.66;5115451;28;20289;-79
2022/07/20 01:07:44;;;;;;;6.83;4.47;;;29.40;36.20;;;-142.21;32.66;112049.66;5114466;28;20281;-76
2022/07/20 01:10:13;;;;;;;6.03;4.70;;;29.40;36.40;;;-142.21;32.65;112049.66;5115117;28;20317;-79
2022/07/20 01:12:44;;;;;;;5.37;4.63;;;29.20;36.60;;;-142.21;32.94;112049.66;5115096;28;20250;-79
2022/07/20 01:15:14;;;;;;;7.50;4.80;;;29.20;36.70;;;-142.21;33.16;112049.66;5115025;28;20659;-79
2022/07/20 01:17:41;;;;;;;5.93;4.80;;;29.10;37.00;;;-142.21;33.48;112049.66;5114506;28;20224;-79
2022/07/20 01:20:14;;;;;;;6.17;4.07;;;29.10;37.80;;;-142.21;33.56;112049.66;5115138;28;20211;-76
2022/07/20 01:22:43;;;;;;;5.53;4.87;;;29.00;37.20;;;-142.21;33.73;112049.66;5114827;28;20220;-79
2022/07/20 01:25:10;;;;;;;4.80;4.20;;;29.00;37.60;;;-142.21;33.72;112049.66;5113677;28;20677;-79
2022/07/20 01:27:37;;;;;;;4.90;4.40;;;28.90;37.60;;;-142.21;33.91;112049.66;5084065;28;20202;-79
2022/07/20 01:30:06;;;;;;;5.47;4.57;;;28.80;37.90;;;-142.21;34.09;112049.66;5115228;28;20206;-79
2022/07/20 01:32:34;;;;;;;5.50;4.33;;;28.80;38.30;;;-142.21;34.22;112049.66;5113749;28;20318;-76
2022/07/20 01:35:02;;;;;;;6.90;4.53;;;28.70;38.40;;;-142.21;34.19;112049.66;5115043;28;20280;-77
2022/07/20 01:37:29;;;;;;;4.97;4.47;;;28.60;38.30;;;-142.21;34.50;112049.66;5113521;28;20228;-77
2022/07/20 01:39:58;;;;;;;5.00;4.50;;;28.60;38.50;;;-142.21;34.81;112049.66;5114738;28;20205;-76
2022/07/20 01:42:25;;;;;;;5.17;4.50;;;28.50;38.70;;;-142.21;34.81;112049.66;5114428;28;20209;-79
2022/07/20 01:44:53;;;;;;;5.90;4.43;;;28.50;38.80;;;-142.21;34.88;112049.66;5114248;28;20400;-77
2022/07/20 01:47:20;;;;;;;6.10;4.50;;;28.40;39.00;;;-142.21;35.02;112049.66;5113492;28;20206;-77
2022/07/20 01:49:47;;;;;;;5.40;4.77;;;28.40;39.20;;;-142.21;35.05;112049.66;5114942;28;20228;-77
2022/07/20 01:52:14;;;;;;;5.57;4.17;;;28.30;39.20;;;-142.21;35.28;112049.66;5114609;28;20197;-76
2022/07/20 01:54:41;;;;;;;4.73;4.20;;;28.30;39.30;;;-142.21;35.04;112049.66;5114421;28;20198;-79
2022/07/20 01:57:09;;;;;;;5.33;4.23;;;28.20;39.30;;;-142.21;35.01;112049.66;5113689;28;20666;-78
2022/07/20 01:59:37;;;;;;;6.20;4.90;;;28.20;40.10;;;-142.21;35.03;112049.66;5114143;28;20307;-80
2022/07/20 02:02:04;;;;;;;5.03;4.57;;;28.10;39.30;;;-142.21;35.41;112049.66;5113896;28;20673;-78
2022/07/20 02:04:31;;;;;;;6.77;4.37;;;28.10;39.40;;;-142.21;35.20;112049.66;5114157;28;20306;-80
2022/07/20 02:06:58;;;;;;;5.90;5.00;;;28.10;39.70;;;-142.21;35.65;112049.66;5114240;28;20228;-79
2022/07/20 02:09:25;;;;;;;6.17;4.90;;;28.00;39.70;;;-142.21;35.67;112049.66;5113783;28;20204;-79
2022/07/20 02:11:53;;;;;;;5.73;4.50;;;28.00;40.00;;;-142.21;35.70;112049.66;5113971;28;20229;-79
2022/07/20 02:14:21;;;;;;;5.17;4.10;;;28.00;40.20;;;-142.21;36.62;112049.66;5095855;28;20745;-77
2022/07/20 02:16:49;;;;;;;7.00;4.67;;;27.90;40.60;;;-142.21;36.97;112049.66;5113793;28;20675;-76
2022/07/20 02:19:16;;;;;;;5.60;4.27;;;27.90;41.00;;;-142.21;36.87;112049.66;5113794;28;20220;-77
2022/07/20 02:21:43;;;;;;;5.47;4.40;;;27.80;40.90;;;-142.21;36.35;112049.66;5112906;28;20284;-77
2022/07/20 02:24:10;;;;;;;6.27;4.77;;;27.80;40.80;;;-142.21;36.80;112049.66;5114310;28;20198;-77
2022/07/20 02:26:37;;;;;;;6.93;4.63;;;27.70;40.90;;;-142.21;36.68;112049.66;5113466;28;20201;-77
2022/07/20 02:29:05;;;;;;;5.50;4.70;;;27.70;41.00;;;-142.21;36.63;112049.66;5113842;28;20200;-77
2022/07/20 02:31:33;;;;;;;5.33;4.37;;;27.70;40.90;;;-142.21;36.53;112049.66;5113286;28;20233;-77
2022/07/20 02:34:01;;;;;;;5.60;5.10;;;27.60;41.00;;;-142.21;36.62;112049.66;5113821;28;20209;-78
2022/07/20 02:36:28;;;;;;;6.77;4.53;;;27.60;41.00;;;-142.21;36.68;112049.66;5113461;28;20205;-79
2022/07/20 02:38:55;;;;;;;4.83;4.30;;;27.50;41.10;;;-142.21;36.43;112049.66;5113797;28;20312;-79
2022/07/20 02:41:22;;;;;;;6.53;4.67;;;27.50;40.70;;;-142.21;36.30;112049.66;5113463;28;20200;-80
2022/07/20 02:43:49;;;;;;;8.83;4.63;;;27.50;40.60;;;-142.21;36.22;112049.66;5112800;28;20207;-78
2022/07/20 02:46:17;;;;;;;6.00;4.23;;;27.50;40.40;;;-142.21;35.93;112049.66;5113461;28;20291;-78
2022/07/20 02:48:45;;;;;;;4.73;4.20;;;27.60;40.60;;;-142.21;35.99;112049.66;5112774;28;20242;-76
2022/07/20 02:51:12;;;;;;;4.87;4.37;;;27.60;40.60;;;-142.21;36.38;112049.66;5113945;28;20251;-76
2022/07/20 02:53:39;;;;;;;5.13;3.93;;;27.50;40.80;;;-142.21;36.63;112049.66;5112374;28;20223;-76
2022/07/20 02:56:06;;;;;;;6.47;5.07;;;27.50;40.80;;;-142.21;36.31;112049.66;5113910;28;20231;-80
2022/07/20 02:58:34;;;;;;;6.07;4.50;;;27.50;40.90;;;-142.21;36.02;112049.66;5111237;28;20784;-77
2022/07/20 03:01:01;;;;;;;6.47;5.00;;;27.50;40.80;;;-142.21;36.63;112049.66;5113583;28;20290;-81
2022/07/20 03:03:28;;;;;;;4.80;4.30;;;27.50;40.70;;;-142.21;35.96;112049.66;5094078;28;20197;-78
2022/07/20 03:05:56;;;;;;;5.50;4.40;;;27.50;40.40;;;-142.21;36.53;112049.66;5113376;28;20193;-77
2022/07/20 03:08:24;;;;;;;6.40;4.30;;;27.50;40.70;;;-142.21;36.28;112049.66;5113435;28;20290;-80
2022/07/20 03:10:51;;;;;;;5.27;4.57;;;27.50;40.70;;;-142.21;36.31;112049.66;5113241;28;20593;-78
2022/07/20 03:13:18;;;;;;;6.23;4.43;;;27.50;40.80;;;-142.21;36.65;112049.66;5113018;28;20228;-80
2022/07/20 03:15:45;;;;;;;6.73;4.33;;;27.50;40.90;;;-142.21;36.69;112049.66;5112475;28;20207;-80
2022/07/20 03:18:12;;;;;;;4.93;4.43;;;27.50;40.90;;;-142.21;36.52;112049.66;5113113;28;20727;-77
2022/07/20 03:20:40;;;;;;;5.07;4.20;;;27.40;40.90;;;-142.21;36.62;112049.66;5112937;28;20225;-76
2022/07/20 03:23:08;;;;;;;6.43;4.50;;;27.40;40.90;;;-142.21;36.49;112049.66;5112685;28;20279;-79
2022/07/20 03:25:35;;;;;;;6.30;4.13;;;27.40;40.70;;;-142.21;36.63;112049.66;5112171;28;20235;-79
2022/07/20 03:28:03;;;;;;;5.67;4.87;;;27.40;41.00;;;-142.21;36.94;112049.66;5112048;28;20558;-79
2022/07/20 03:30:30;;;;;;;5.20;4.57;;;27.40;41.30;;;-142.21;37.60;112049.66;5094184;28;20645;-79
2022/07/20 03:32:58;;;;;;;7.77;4.63;;;27.40;41.50;;;-142.21;37.54;112049.66;5112461;28;20279;-77
2022/07/20 03:35:26;;;;;;;5.50;4.43;;;27.40;41.60;;;-142.21;37.92;112049.66;5112175;28;20203;-78
2022/07/20 03:37:53;;;;;;;6.17;4.73;;;27.30;41.90;;;-142.21;37.89;112049.66;5112353;28;20201;-79
2022/07/20 03:40:21;;;;;;;9.00;4.90;;;27.20;42.30;;;-142.21;38.81;112049.66;5112504;28;20230;-79
2022/07/20 03:42:49;;;;;;;5.97;4.43;;;27.20;42.90;;;-142.21;39.41;112049.66;5111007;28;20202;-79
2022/07/20 03:45:16;;;;;;;6.23;4.70;;;27.10;43.10;;;-142.21;39.96;112049.66;5111649;28;20224;-79
2022/07/20 03:47:43;;;;;;;6.87;4.70;;;27.00;43.40;;;-142.21;40.48;112049.66;5093912;28;20282;-79
2022/07/20 03:50:11;;;;;;;5.43;4.17;;;27.00;44.00;;;-142.21;40.91;112049.66;5111994;28;20228;-80
2022/07/20 03:52:38;;;;;;;6.70;5.03;;;26.90;44.20;;;-142.21;40.51;112049.66;5096590;28;20195;-80
2022/07/20 03:55:07;;;;;;;4.97;4.33;;;26.90;44.40;;;-142.21;40.87;112049.66;5112624;28;20236;-76
2022/07/20 03:57:35;;;;;;;7.83;4.80;;;26.90;44.60;;;-142.21;41.10;112049.66;5093231;28;20192;-78
2022/07/20 04:00:04;;;;;;;5.83;4.97;;;26.80;44.70;;;-142.21;41.47;112049.66;5112616;28;20231;-77
2022/07/20 04:02:31;;;;;;;4.97;4.37;;;26.70;44.80;;;-142.21;42.30;112049.66;5111574;28;20207;-80
2022/07/20 04:04:58;;;;;;;5.37;4.53;;;26.70;45.10;;;-142.21;42.44;112049.66;5112489;28;20199;-79
2022/07/20 04:07:27;;;;;;;5.53;4.77;;;26.60;45.20;;;-142.21;42.69;112049.66;5112107;28;20609;-80
2022/07/20 04:09:54;;;;;;;5.13;4.47;;;26.60;45.40;;;-142.21;43.01;112049.66;5111528;28;20229;-81
2022/07/20 04:12:23;;;;;;;7.57;4.70;;;26.60;46.10;;;-142.21;43.72;112049.66;5112122;28;20215;-80
2022/07/20 04:14:53;;;;;;;7.27;5.13;;;26.50;46.10;;;-142.21;44.22;112049.66;5111594;28;20199;-79
2022/07/20 04:17:23;;;;;;;8.63;4.77;;;26.40;46.40;;;-142.21;44.35;112049.66;5112159;28;20294;-79
2022/07/20 04:19:51;;;;;;;10.10;4.73;;;26.40;46.30;;;-142.21;45.29;112049.66;5111520;28;20219;-79
2022/07/20 04:22:18;;;;;;;10.27;5.07;;;26.40;46.80;;;-142.21;46.29;112049.66;5111886;28;20723;-79
2022/07/20 04:24:45;;;;;;;8.93;5.10;;;26.40;46.80;;;-142.21;46.90;112049.66;5110988;28;20287;-79
2022/07/20 04:27:13;;;;;;;8.33;4.93;;;26.30;47.40;;;-142.21;47.90;112049.66;5112020;28;20243;-78
2022/07/20 04:29:41;;;;;;;6.87;4.17;;;26.30;47.90;;;-142.21;47.68;112049.66;5093518;28;20230;-79
2022/07/20 04:32:09;;;;;;;5.67;4.30;;;26.30;47.70;;;-142.21;48.03;112049.66;5111872;28;20203;-79
2022/07/20 04:34:36;;;;;;;5.97;5.10;;;26.30;47.80;;;-142.21;46.78;112049.66;5111570;28;20291;-79
2022/07/20 04:37:04;;;;;;;6.13;4.90;;;26.20;47.60;;;-142.21;47.52;112049.66;5111502;28;20282;-79
2022/07/20 04:39:31;;;;;;;9.50;4.80;;;26.30;47.80;;;-142.21;50.88;112049.66;5110993;28;20223;-79
2022/07/20 04:41:58;;;;;;;8.83;4.40;;;26.30;48.50;;;-142.21;50.42;112049.66;5112179;28;20211;-79
2022/07/20 04:44:25;;;;;;;8.63;4.87;;;26.30;48.60;;;-142.21;50.96;112049.66;5110600;28;20200;-80
2022/07/20 04:46:52;;;;;;;9.77;5.10;;;26.30;48.80;;;-142.21;47.15;112049.66;5110283;28;20192;-79
2022/07/20 04:49:21;;;;;;;5.80;4.70;;;26.30;47.60;;;-142.21;45.70;112049.66;5111827;28;20227;-79
2022/07/20 04:51:48;;;;;;;7.47;5.17;;;26.30;46.90;;;-142.21;44.88;112049.66;5110990;28;20277;-79
2022/07/20 04:54:18;;;;;;;5.73;4.87;;;26.30;46.60;;;-142.21;44.97;112049.66;5111415;28;20287;-79
2022/07/20 04:56:45;;;;;;;6.77;5.13;;;26.30;46.30;;;-142.21;46.98;112049.66;5111456;28;20195;-79
2022/07/20 04:59:12;;;;;;;6.20;4.53;;;26.40;47.10;;;-142.21;46.77;112049.66;5111655;28;20306;-79
2022/07/20 05:01:40;;;;;;;5.30;4.43;;;26.40;47.40;;;-142.21;46.94;112049.66;5111578;28;20207;-79
2022/07/20 05:04:07;;;;;;;8.03;4.80;;;26.40;47.30;;;-142.21;45.98;112049.66;5111666;28;20215;-80
2022/07/20 05:06:36;;;;;;;6.23;4.83;;;26.50;47.20;;;-142.21;46.08;112049.66;5111327;28;20224;-80
2022/07/20 05:09:06;;;;;;;7.17;4.80;;;26.60;47.30;;;-142.21;45.32;112049.66;5111586;28;20270;-79
2022/07/20 05:11:34;;;;;;;7.60;4.80;;;26.60;47.10;;;-142.21;45.29;112049.66;5110728;28;20696;-78
2022/07/20 05:14:01;;;;;;;8.80;4.67;;;26.70;47.00;;;-142.21;45.13;112049.66;5111785;28;20290;-80
2022/07/20 05:16:28;;;;;;;6.77;5.23;;;26.70;47.00;;;-142.21;45.85;112049.66;5111810;28;20192;-80
2022/07/20 05:18:55;;;;;;;6.20;4.90;;;26.70;47.30;;;-142.21;46.97;112049.66;5111411;28;20330;-80
2022/07/20 05:21:23;;;;;;;8.57;5.30;;;26.80;47.60;;;-142.21;46.12;112049.66;5112222;28;20691;-80
2022/07/20 05:23:51;;;;;;;6.13;4.83;;;26.80;47.30;;;-142.21;46.41;112049.66;5114030;28;20204;-79
2022/07/20 05:26:18;;;;;;;6.07;4.93;;;26.80;47.50;;;-142.21;47.96;112049.66;5114828;28;20209;-80
2022/07/20 05:28:46;;;;;;;9.87;5.30;;;26.90;47.80;;;-142.21;45.70;112049.66;5114813;28;20222;-78
2022/07/20 05:31:14;;;;;;;7.93;5.17;;;26.90;47.10;;;-142.21;45.94;112049.66;5114851;28;20643;-77
2022/07/20 05:33:41;;;;;;;5.53;4.53;;;27.00;47.30;;;-142.21;46.18;112049.66;5114326;28;20248;-76
2022/07/20 05:36:10;;;;;;;5.90;4.93;;;27.00;47.30;;;-142.21;46.21;112049.66;5115139;28;20200;-76
2022/07/20 05:38:37;;;;;;;8.40;5.00;;;27.10;47.30;;;-142.21;44.97;112049.66;5113402;28;20211;-77
2022/07/20 05:41:07;;;;;;;6.00;5.40;;;27.10;46.90;;;-142.21;43.85;112049.66;5115085;28;20323;-76
2022/07/20 05:43:34;;;;;;;8.57;5.63;;;27.20;46.60;;;-142.21;43.05;112049.66;5113486;28;20210;-75
2022/07/20 05:46:03;;;;;;;6.53;5.20;;;27.30;45.90;;;-142.21;42.64;112049.66;5096493;28;20296;-76
2022/07/20 05:48:32;;;;;;;7.40;4.90;;;27.30;45.90;;;-142.21;42.08;112049.66;5114762;28;20603;-75
2022/07/20 05:50:59;;;;;;;6.90;4.90;;;27.30;45.60;;;-142.21;42.67;112049.66;5114666;28;20286;-75
2022/07/20 05:53:27;;;;;;;8.47;4.87;;;27.30;45.90;;;-142.21;43.82;112049.66;5114101;28;20280;-75
2022/07/20 05:55:54;;;;;;;7.10;5.63;;;27.30;46.20;;;-142.21;43.44;112049.66;5113749;28;20258;-75
2022/07/20 05:58:23;;;;;;;9.00;5.30;;;27.40;46.40;;;-142.21;42.75;112049.66;5112436;28;20679;-76
2022/07/20 06:00:50;;;;;;;9.27;5.40;;;27.40;46.00;;;-142.21;43.42;112049.66;5113758;28;20243;-75
2022/07/20 06:03:17;;;;;;;5.60;5.00;;;27.50;46.00;;;-142.21;42.99;112049.66;5114637;28;20227;-76
2022/07/20 06:05:44;;;;;;;7.50;5.20;;;27.50;46.00;;;-142.21;43.14;112049.66;5114117;28;20208;-76
2022/07/20 06:08:11;;;;;;;6.23;4.80;;;27.50;46.00;;;-142.21;42.04;112049.66;5113977;28;20237;-74
2022/07/20 06:10:39;;;;;;;6.23;5.40;;;27.60;45.80;;;-142.21;41.92;112049.66;5096021;28;20311;-76
2022/07/20 06:13:06;;;;;;;7.23;5.27;;;27.60;45.90;;;-142.21;41.58;112049.66;5114079;28;20297;-79
2022/07/20 06:15:35;;;;;;;8.47;5.30;;;27.50;45.50;;;-142.21;41.49;112049.66;5114638;28;20301;-78
2022/07/20 06:18:03;;;;;;;6.07;4.90;;;27.60;45.50;;;-142.21;41.55;112049.66;5114654;28;20663;-79
2022/07/20 06:20:30;;;;;;;7.47;5.17;;;27.60;45.50;;;-142.21;41.28;112049.66;5114557;28;20240;-77
2022/07/20 06:22:58;;;;;;;6.70;5.50;;;27.70;45.30;;;-142.21;42.42;112049.66;5114366;28;20205;-78
2022/07/20 06:25:26;;;;;;;7.20;5.17;;;27.70;45.60;;;-142.21;43.04;112049.66;5113572;28;20221;-78
2022/07/20 06:27:53;;;;;;;6.97;5.83;;;27.70;46.20;;;-142.21;42.94;112049.66;5101149;28;20241;-77
2022/07/20 06:30:21;;;;;;;6.70;5.20;;;27.80;46.20;;;-142.21;43.08;112049.66;5113152;28;20229;-77
2022/07/20 06:32:49;;;;;;;9.40;5.43;;;27.80;46.20;;;-142.21;43.46;112049.66;5112793;28;20639;-77
2022/07/20 06:35:17;;;;;;;7.67;5.03;;;27.90;46.30;;;-142.21;43.81;112049.66;5095335;28;20660;-78
2022/07/20 06:37:44;;;;;;;7.17;5.63;;;28.00;46.40;;;-142.21;42.64;112049.66;5113535;28;20552;-77
2022/07/20 06:40:12;;;;;;;6.70;5.03;;;28.10;46.10;;;-142.21;42.62;112049.66;5113722;28;20232;-78
2022/07/20 06:42:40;;;;;;;6.27;5.63;;;28.20;46.00;;;-142.21;42.35;112049.66;5113303;28;20688;-77
2022/07/20 06:45:08;;;;;;;8.33;5.80;;;28.30;45.70;;;-142.21;42.28;112049.66;5113898;28;20207;-78
2022/07/20 06:47:35;;;;;;;9.17;5.30;;;28.40;45.60;;;-142.21;42.17;112049.66;5113671;28;20293;-77
2022/07/20 06:50:05;;;;;;;6.77;5.13;;;28.50;46.20;;;-142.21;41.73;112049.66;5113207;28;20291;-78
2022/07/20 06:52:33;;;;;;;7.00;5.20;;;28.50;45.20;;;-142.21;41.96;112049.66;5113815;28;20203;-77
2022/07/20 06:55:00;;;;;;;7.87;5.60;;;28.70;45.30;;;-142.21;41.08;112049.66;5113103;28;20200;-79
2022/07/20 06:57:27;;;;;;;5.10;4.60;;;28.80;45.00;;;-142.21;40.56;112049.66;5113578;28;20205;-77
2022/07/20 06:59:54;;;;;;;7.27;5.47;;;28.90;44.50;;;-142.21;39.44;112049.66;5094689;28;20321;-77
2022/07/20 07:02:22;;;;;;;6.50;5.07;;;29.10;43.80;;;-142.21;38.67;112049.66;5113461;28;20210;-76
2022/07/20 07:04:49;;;;;;;6.10;5.30;;;29.30;43.20;;;-142.21;37.44;112049.66;5112614;28;20263;-76
2022/07/20 07:07:18;;;;;;;5.57;5.07;;;29.40;42.40;;;-142.21;37.26;112049.66;5113519;28;20324;-78
2022/07/20 07:09:45;;;;;;;6.40;4.83;;;29.50;42.20;;;-142.21;37.39;112049.66;5112899;28;20202;-78
2022/07/20 07:12:13;;;;;;;6.83;5.40;;;29.70;42.20;;;-142.21;37.22;112049.66;5113600;28;20208;-76
2022/07/20 07:14:40;;;;;;;5.83;4.80;;;29.80;42.00;;;-142.21;36.70;112049.66;5112446;28;20210;-77
2022/07/20 07:17:08;;;;;;;6.20;4.57;;;30.00;41.80;;;-142.21;35.77;112049.66;5113685;28;20293;-78
2022/07/20 07:19:35;;;;;;;7.53;4.33;;;30.00;40.80;;;-142.21;35.77;112049.66;5112667;28;20658;-77
2022/07/20 07:22:02;;;;;;;4.87;4.33;;;30.20;41.00;;;-142.21;34.71;112049.66;5112600;28;20206;-76
2022/07/20 07:24:31;;;;;;;5.87;5.07;;;30.20;39.70;;;-142.21;35.11;112049.66;5095317;28;20310;-78
2022/07/20 07:26:58;;;;;;;5.83;4.60;;;30.30;40.40;;;-142.21;35.67;112049.66;5112480;28;20287;-76
2022/07/20 07:29:27;;;;;;;5.70;4.60;;;30.40;40.50;;;-142.21;34.79;112049.66;5112756;28;20235;-76
2022/07/20 07:31:58;;;;;;;5.27;4.77;;;30.50;40.20;;;-142.21;35.65;112049.66;5112548;28;20295;-78
2022/07/20 07:34:26;;;;;;;5.83;4.70;;;30.70;40.30;;;-142.21;34.93;112049.66;5113107;28;20282;-77
2022/07/20 07:36:53;;;;;;;4.50;4.10;;;30.90;40.00;;;-142.21;35.86;112049.66;5112516;28;20199;-77
2022/07/20 07:39:20;;;;;;;4.90;4.50;;;31.00;40.00;;;-142.21;36.12;112049.66;5113036;28;20294;-77
2022/07/20 07:41:49;;;;;;;4.67;4.20;;;31.10;40.30;;;-142.21;34.41;112049.66;5112065;28;20310;-77
2022/07/20 07:44:16;;;;;;;8.00;4.87;;;31.20;39.10;;;-142.21;34.35;112049.66;5112417;28;20619;-76
2022/07/20 07:46:43;;;;;;;5.70;4.43;;;31.20;38.90;;;-142.21;34.33;112049.66;5112587;28;20208;-77
2022/07/20 07:49:11;;;;;;;5.70;4.77;;;31.30;38.70;;;-142.21;33.74;112049.66;5112721;28;20235;-77
2022/07/20 07:51:38;;;;;;;5.00;4.40;;;31.40;38.20;;;-142.21;33.41;112049.66;5112890;28;20238;-76
2022/07/20 07:54:06;;;;;;;6.47;4.60;;;31.40;38.30;;;-142.21;33.46;112049.66;5094581;28;20203;-77
2022/07/20 07:56:33;;;;;;;5.60;4.67;;;31.50;38.10;;;-142.21;33.33;112049.66;5112537;28;20199;-77
2022/07/20 07:59:02;;;;;;;9.13;4.77;;;31.50;38.00;;;-142.21;33.59;112049.66;5111791;28;20657;-76
2022/07/20 08:01:29;;;;;;;4.67;4.23;;;31.70;37.90;;;-142.21;32.84;112049.66;5111111;28;20655;-76
2022/07/20 08:03:56;;;;;;;8.07;4.60;;;31.70;37.60;;;-142.21;33.42;112049.66;5111850;28;20214;-78
2022/07/20 08:06:24;;;;;;;7.00;4.97;;;31.80;37.80;;;-142.21;33.23;112049.66;5112662;28;20199;-77
2022/07/20 08:08:51;;;;;;;4.93;4.40;;;31.90;37.90;;;-142.21;32.95;112049.66;5111816;28;20268;-77
2022/07/20 08:11:18;;;;;;;7.30;4.63;;;32.00;37.50;;;-142.21;32.82;112049.66;5112153;28;20717;-75
2022/07/20 08:13:45;;;;;;;5.87;5.00;;;32.10;37.20;;;-142.21;32.44;112049.66;5111616;28;20252;-77
2022/07/20 08:16:14;;;;;;;4.90;4.50;;;32.20;37.00;;;-142.21;32.49;112049.66;5112203;28;20204;-77
2022/07/20 08:18:41;;;;;;;5.87;4.47;;;32.20;37.10;;;-142.21;33.09;112049.66;5111931;28;20199;-76
2022/07/20 08:21:09;;;;;;;5.83;4.90;;;32.40;37.60;;;-142.21;32.35;112049.66;5112150;28;20727;-77
2022/07/20 08:23:36;;;;;;;5.23;4.20;;;32.50;36.80;;;-142.21;33.15;112049.66;5112440;28;20271;-78
2022/07/20 08:26:03;;;;;;;5.70;4.77;;;32.50;37.30;;;-142.21;32.77;112049.66;5089864;28;20308;-76
2022/07/20 08:28:30;;;;;;;5.13;4.60;;;32.60;37.20;;;-142.21;32.80;112049.66;5091992;28;20235;-77
2022/07/20 08:30:57;;;;;;;5.43;4.63;;;32.80;37.20;;;-142.21;32.76;112049.66;5107303;28;20192;-76
2022/07/20 08:33:26;;;;;;;7.07;5.93;;;32.90;37.60;;;-142.21;33.17;112049.66;5094247;28;20295;-75
2022/07/20 08:35:53;;;;;;;7.87;6.20;;;33.00;38.20;;;-142.21;33.29;112049.66;5111791;28;20295;-75
2022/07/20 08:38:20;;;;;;;8.20;7.03;;;33.00;37.70;;;-142.21;33.04;112049.66;5112049;28;20207;-76
2022/07/20 08:40:48;;;;;;;8.43;7.50;;;33.00;37.70;;;-142.21;33.56;112049.66;5111617;28;20228;-76
2022/07/20 08:43:16;;;;;;;8.70;7.87;;;33.00;38.30;;;-142.21;33.50;112049.66;5111844;28;20740;-76
2022/07/20 08:45:43;;;;;;;11.63;7.63;;;32.90;38.20;;;-142.21;33.36;112049.66;5111955;28;20207;-75
2022/07/20 08:48:12;;;;;;;9.90;8.27;;;33.00;38.60;;;-142.21;33.57;112049.66;5111895;28;20300;-75
2022/07/20 08:50:41;;;;;;;10.83;8.23;;;33.00;39.00;;;-142.21;34.07;112049.66;5112265;28;20204;-74
2022/07/20 08:53:09;;;;;;;9.30;7.20;;;33.10;39.00;;;-142.21;33.78;112049.66;5111715;28;20248;-75
2022/07/20 08:55:36;;;;;;;9.87;8.13;;;33.20;39.10;;;-142.21;34.07;112049.66;5111867;28;20212;-75
2022/07/20 08:58:03;;;;;;;11.43;9.47;;;33.30;39.20;;;-142.21;33.96;112049.66;5114978;28;20208;-77
2022/07/20 09:00:30;;;;;;;9.57;8.67;;;33.40;39.20;;;-142.21;34.36;112049.66;5115697;28;20578;-74
2022/07/20 09:03:01;;;;;;;9.83;8.93;;;33.30;39.50;;;-142.21;34.41;112049.66;5097053;28;20293;-75
2022/07/20 09:05:32;;;;;;;12.40;10.10;;;33.40;39.80;;;-142.21;34.56;112049.66;5116046;28;20197;-75
2022/07/20 09:08:02;;;;;;;14.13;10.50;;;33.50;39.90;;;-142.21;34.64;112049.66;5115391;28;20243;-75
2022/07/20 09:10:32;;;;;;;12.27;9.77;;;33.60;40.10;;;-142.21;34.71;112049.66;5115716;28;20316;-75
2022/07/20 09:13:02;;;;;;;14.20;10.73;;;33.80;40.10;;;-142.21;35.03;112049.66;5115161;28;20276;-75
2022/07/20 09:15:36;;;;;;;13.13;10.83;;;33.90;40.00;;;-142.21;34.71;112049.66;5115282;28;20205;-74
2022/07/20 09:18:10;;;;;;;11.77;10.37;;;34.00;39.70;;;-142.21;35.23;112049.66;5115244;28;20215;-75
2022/07/20 09:20:41;;;;;;;11.17;9.80;;;34.00;39.90;;;-142.21;35.03;112049.66;5115412;28;20210;-75
2022/07/20 09:23:13;;;;;;;13.20;10.53;;;34.10;40.00;;;-142.21;34.93;112049.66;5115028;28;20285;-77
2022/07/20 09:25:56;;;;;;;12.40;11.17;;;34.20;39.70;;;-142.21;34.97;112049.66;5115391;28;20348;-76
2022/07/20 09:28:35;;;;;;;17.60;11.23;;;34.30;39.90;;;-142.21;34.83;112049.66;5115229;28;20190;-76
2022/07/20 09:31:03;;;;;;;12.93;11.73;;;34.50;39.70;;;-142.21;34.70;112049.66;5114537;28;20197;-75
2022/07/20 09:33:33;;;;;;;14.63;12.63;;;34.60;39.50;;;-142.21;34.52;112049.66;5115460;28;20199;-76
2022/07/20 09:36:06;;;;;;;13.70;12.03;;;34.60;39.50;;;-142.21;34.12;112049.66;5114865;28;20294;-75
2022/07/20 09:38:41;;;;;;;12.77;11.53;;;34.50;39.30;;;-142.21;34.23;112049.66;5115426;28;20278;-75
2022/07/20 09:41:24;;;;;;;12.47;11.33;;;34.50;39.40;;;-142.21;34.36;112049.66;5114348;28;20210;-76
2022/07/20 09:43:52;;;;;;;15.70;12.03;;;34.40;39.70;;;-142.21;34.55;112049.66;5113991;28;20638;-75
2022/07/20 09:46:23;;;;;;;13.93;11.60;;;34.50;39.70;;;-142.21;34.18;112049.66;5115360;28;20297;-75
2022/07/20 09:48:54;;;;;;;14.40;11.30;;;34.60;39.50;;;-142.21;34.08;112049.66;5114626;28;20193;-76
2022/07/20 09:51:27;;;;;;;13.73;11.53;;;34.60;39.40;;;-142.21;34.37;112049.66;5115160;28;20292;-74
2022/07/20 09:53:58;;;;;;;13.13;11.70;;;34.60;39.90;;;-142.21;34.87;112049.66;5114523;28;20253;-77
2022/07/20 09:56:27;;;;;;;14.47;11.00;;;34.80;40.00;;;-142.21;34.14;112049.66;5114697;28;20632;-76
2022/07/20 09:58:57;;;;;;;11.87;10.77;;;35.00;39.50;;;-142.21;34.21;112049.66;5113702;28;20298;-76
2022/07/20 10:01:28;;;;;;;12.93;11.60;;;35.00;39.30;;;-142.21;33.78;112049.66;5114951;28;20298;-76
2022/07/20 10:03:58;;;;;;;11.90;10.70;;;35.10;38.90;;;-142.21;33.41;112049.66;5114249;28;20291;-77